CheckWX is a tool to help pilots better visualize weather data.  It is not intended as a substitute for an official pre-flight weather briefing.

18:31:15 UTC

KCHK METAR
Chickasha Municipal Airport
Chickasha, Oklahoma, USA
Current

16 mins ago

KCHK 221815Z AUTO 10011KT 10SM OVC007 07/06 A2997 RMK AO2 T00750057
Observed
Feb-22 @ 18:15 UTC
Wind
  • 100° at 11 KTS
Visibility
10 SM
Flight Rules
IFR
Cloud Levels
  • Overcast at 700' AGL
Temperature
C / 46°F
Dewpoint
C / 43°F
Humidity
87%
Altimeter
29.97" Hg
Pressure
1014.92 hPa
Previous

36 mins ago

KCHK 221755Z AUTO 09012KT 10SM OVC007 07/06 A2999 RMK AO2 T00690055 10070 20049
Observed
Feb-22 @ 17:55 UTC
Wind
  • 090° at 12 KTS
Visibility
10 SM
Flight Rules
IFR
Cloud Levels
  • Overcast at 700' AGL
Temperature
C / 45°F
Dewpoint
C / 43°F
Humidity
93%
Altimeter
29.99" Hg
Pressure
1015.62 hPa
Previous

56 mins ago

KCHK 221735Z AUTO 10011KT 10SM OVC007 06/05 A3002 RMK AO2 T00650052
Observed
Feb-22 @ 17:35 UTC
Wind
  • 100° at 11 KTS
Visibility
10 SM
Flight Rules
IFR
Cloud Levels
  • Overcast at 700' AGL
Temperature
C / 45°F
Dewpoint
C / 41°F
Humidity
87%
Altimeter
30.02" Hg
Pressure
1016.62 hPa